sensor_id;sensor_type;location;lat;lon;timestamp;P1;durP1;ratioP1;P2;durP2;ratioP2
71106;SDS011;58763;47.982;11.516;2023-09-18T00:01:47;6.03;;;2.42;;
71106;SDS011;58763;47.982;11.516;2023-09-18T00:04:13;5.97;;;2.20;;
71106;SDS011;58763;47.982;11.516;2023-09-18T00:06:39;5.18;;;2.38;;
71106;SDS011;58763;47.982;11.516;2023-09-18T00:09:04;4.53;;;2.38;;
71106;SDS011;58763;47.982;11.516;2023-09-18T00:11:32;5.72;;;2.50;;
71106;SDS011;58763;47.982;11.516;2023-09-18T00:13:59;4.53;;;2.22;;
71106;SDS011;58763;47.982;11.516;2023-09-18T00:16:24;4.50;;;2.40;;
71106;SDS011;58763;47.982;11.516;2023-09-18T00:18:52;5.13;;;2.70;;
71106;SDS011;58763;47.982;11.516;2023-09-18T00:21:19;5.78;;;2.20;;
71106;SDS011;58763;47.982;11.516;2023-09-18T00:23:44;4.22;;;1.90;;
71106;SDS011;58763;47.982;11.516;2023-09-18T00:26:11;5.45;;;1.92;;
71106;SDS011;58763;47.982;11.516;2023-09-18T00:28:37;4.97;;;2.28;;
71106;SDS011;58763;47.982;11.516;2023-09-18T00:31:02;4.60;;;2.30;;
71106;SDS011;58763;47.982;11.516;2023-09-18T00:33:28;4.03;;;2.00;;
71106;SDS011;58763;47.982;11.516;2023-09-18T00:35:53;4.47;;;2.30;;
71106;SDS011;58763;47.982;11.516;2023-09-18T00:38:19;5.03;;;2.33;;
71106;SDS011;58763;47.982;11.516;2023-09-18T00:40:45;6.15;;;1.92;;
71106;SDS011;58763;47.982;11.516;2023-09-18T00:43:10;4.95;;;2.20;;
71106;SDS011;58763;47.982;11.516;2023-09-18T00:45:44;4.95;;;2.10;;
71106;SDS011;58763;47.982;11.516;2023-09-18T00:48:10;4.50;;;2.20;;
71106;SDS011;58763;47.982;11.516;2023-09-18T00:50:37;6.28;;;2.70;;
71106;SDS011;58763;47.982;11.516;2023-09-18T00:53:03;4.18;;;2.35;;
71106;SDS011;58763;47.982;11.516;2023-09-18T00:55:32;6.28;;;2.20;;
71106;SDS011;58763;47.982;11.516;2023-09-18T00:57:58;5.95;;;2.30;;
71106;SDS011;58763;47.982;11.516;2023-09-18T01:00:24;4.80;;;2.25;;
71106;SDS011;58763;47.982;11.516;2023-09-18T01:02:50;5.93;;;2.45;;
71106;SDS011;58763;47.982;11.516;2023-09-18T01:05:15;6.45;;;2.65;;
71106;SDS011;58763;47.982;11.516;2023-09-18T01:07:42;5.40;;;2.38;;
71106;SDS011;58763;47.982;11.516;2023-09-18T01:10:08;6.85;;;2.67;;
71106;SDS011;58763;47.982;11.516;2023-09-18T01:12:44;5.07;;;2.40;;
71106;SDS011;58763;47.982;11.516;2023-09-18T01:17:44;5.60;;;2.20;;
71106;SDS011;58763;47.982;11.516;2023-09-18T01:20:12;3.80;;;2.00;;
71106;SDS011;58763;47.982;11.516;2023-09-18T01:22:37;7.53;;;2.45;;
71106;SDS011;58763;47.982;11.516;2023-09-18T01:25:03;5.88;;;2.75;;
71106;SDS011;58763;47.982;11.516;2023-09-18T01:27:31;6.10;;;2.45;;
71106;SDS011;58763;47.982;11.516;2023-09-18T01:29:56;4.50;;;2.50;;
71106;SDS011;58763;47.982;11.516;2023-09-18T01:32:23;4.85;;;2.30;;
71106;SDS011;58763;47.982;11.516;2023-09-18T01:34:52;6.22;;;2.10;;
71106;SDS011;58763;47.982;11.516;2023-09-18T01:37:20;6.80;;;2.65;;
71106;SDS011;58763;47.982;11.516;2023-09-18T01:39:48;5.32;;;2.50;;
71106;SDS011;58763;47.982;11.516;2023-09-18T01:42:16;8.70;;;2.67;;
71106;SDS011;58763;47.982;11.516;2023-09-18T01:44:43;7.45;;;2.50;;
71106;SDS011;58763;47.982;11.516;2023-09-18T01:47:11;6.30;;;2.85;;
71106;SDS011;58763;47.982;11.516;2023-09-18T01:49:39;5.60;;;2.77;;
71106;SDS011;58763;47.982;11.516;2023-09-18T01:52:06;4.78;;;2.47;;
71106;SDS011;58763;47.982;11.516;2023-09-18T01:54:33;5.20;;;2.22;;
71106;SDS011;58763;47.982;11.516;2023-09-18T01:56:59;6.68;;;2.50;;
71106;SDS011;58763;47.982;11.516;2023-09-18T01:59:25;5.10;;;2.17;;
71106;SDS011;58763;47.982;11.516;2023-09-18T02:01:52;6.68;;;2.53;;
71106;SDS011;58763;47.982;11.516;2023-09-18T02:04:18;4.18;;;2.13;;
71106;SDS011;58763;47.982;11.516;2023-09-18T02:06:45;5.53;;;2.50;;
71106;SDS011;58763;47.982;11.516;2023-09-18T02:09:12;6.63;;;2.25;;
71106;SDS011;58763;47.982;11.516;2023-09-18T02:11:39;6.63;;;2.40;;
71106;SDS011;58763;47.982;11.516;2023-09-18T02:14:05;6.57;;;2.25;;
71106;SDS011;58763;47.982;11.516;2023-09-18T02:16:36;4.25;;;2.10;;
71106;SDS011;58763;47.982;11.516;2023-09-18T02:19:03;6.68;;;2.90;;
71106;SDS011;58763;47.982;11.516;2023-09-18T02:21:29;5.50;;;2.38;;
71106;SDS011;58763;47.982;11.516;2023-09-18T02:23:56;6.22;;;2.45;;
71106;SDS011;58763;47.982;11.516;2023-09-18T02:26:22;5.45;;;2.03;;
71106;SDS011;58763;47.982;11.516;2023-09-18T02:28:48;3.95;;;2.28;;
71106;SDS011;58763;47.982;11.516;2023-09-18T02:31:14;5.90;;;2.50;;
71106;SDS011;58763;47.982;11.516;2023-09-18T02:33:41;4.57;;;2.53;;
71106;SDS011;58763;47.982;11.516;2023-09-18T02:36:08;5.03;;;2.47;;
71106;SDS011;58763;47.982;11.516;2023-09-18T02:38:34;5.63;;;2.50;;
71106;SDS011;58763;47.982;11.516;2023-09-18T02:40:59;5.68;;;2.10;;
71106;SDS011;58763;47.982;11.516;2023-09-18T02:43:25;6.07;;;2.35;;
71106;SDS011;58763;47.982;11.516;2023-09-18T02:45:52;6.47;;;2.55;;
71106;SDS011;58763;47.982;11.516;2023-09-18T02:48:18;4.97;;;2.38;;
71106;SDS011;58763;47.982;11.516;2023-09-18T02:50:44;6.43;;;2.28;;
71106;SDS011;58763;47.982;11.516;2023-09-18T02:53:17;5.85;;;2.50;;
71106;SDS011;58763;47.982;11.516;2023-09-18T02:55:45;6.18;;;2.50;;
71106;SDS011;58763;47.982;11.516;2023-09-18T02:58:11;9.65;;;2.38;;
71106;SDS011;58763;47.982;11.516;2023-09-18T03:00:40;4.38;;;2.20;;
71106;SDS011;58763;47.982;11.516;2023-09-18T03:03:09;5.68;;;2.22;;
71106;SDS011;58763;47.982;11.516;2023-09-18T03:05:36;5.60;;;2.40;;
71106;SDS011;58763;47.982;11.516;2023-09-18T03:08:03;4.32;;;2.50;;
71106;SDS011;58763;47.982;11.516;2023-09-18T03:10:38;4.72;;;2.28;;
71106;SDS011;58763;47.982;11.516;2023-09-18T03:13:06;7.85;;;2.75;;
71106;SDS011;58763;47.982;11.516;2023-09-18T03:15:33;6.28;;;2.20;;
71106;SDS011;58763;47.982;11.516;2023-09-18T03:17:58;8.07;;;2.40;;
71106;SDS011;58763;47.982;11.516;2023-09-18T03:20:26;7.65;;;2.60;;
71106;SDS011;58763;47.982;11.516;2023-09-18T03:22:53;5.20;;;2.25;;
71106;SDS011;58763;47.982;11.516;2023-09-18T03:25:20;6.75;;;2.40;;
71106;SDS011;58763;47.982;11.516;2023-09-18T03:27:46;7.22;;;2.45;;
71106;SDS011;58763;47.982;11.516;2023-09-18T03:30:13;5.75;;;2.30;;
71106;SDS011;58763;47.982;11.516;2023-09-18T03:32:41;6.80;;;2.22;;
71106;SDS011;58763;47.982;11.516;2023-09-18T03:35:07;5.65;;;2.45;;
71106;SDS011;58763;47.982;11.516;2023-09-18T03:37:40;4.30;;;1.98;;
71106;SDS011;58763;47.982;11.516;2023-09-18T03:40:07;3.97;;;2.08;;
71106;SDS011;58763;47.982;11.516;2023-09-18T03:42:34;6.93;;;2.42;;
71106;SDS011;58763;47.982;11.516;2023-09-18T03:44:59;7.53;;;2.25;;
71106;SDS011;58763;47.982;11.516;2023-09-18T03:47:25;6.32;;;2.35;;
71106;SDS011;58763;47.982;11.516;2023-09-18T03:49:50;6.85;;;2.47;;
71106;SDS011;58763;47.982;11.516;2023-09-18T03:52:16;9.73;;;2.03;;
71106;SDS011;58763;47.982;11.516;2023-09-18T03:54:42;9.02;;;2.20;;
71106;SDS011;58763;47.982;11.516;2023-09-18T03:57:08;5.57;;;2.00;;
71106;SDS011;58763;47.982;11.516;2023-09-18T03:59:33;6.30;;;2.00;;
71106;SDS011;58763;47.982;11.516;2023-09-18T04:01:59;7.68;;;2.50;;
71106;SDS011;58763;47.982;11.516;2023-09-18T04:04:24;7.00;;;2.53;;
71106;SDS011;58763;47.982;11.516;2023-09-18T04:06:50;4.35;;;2.08;;
71106;SDS011;58763;47.982;11.516;2023-09-18T04:09:15;7.32;;;2.55;;
71106;SDS011;58763;47.982;11.516;2023-09-18T04:11:41;6.53;;;2.20;;
71106;SDS011;58763;47.982;11.516;2023-09-18T04:14:06;7.35;;;2.42;;
71106;SDS011;58763;47.982;11.516;2023-09-18T04:16:32;5.43;;;2.03;;
71106;SDS011;58763;47.982;11.516;2023-09-18T04:19:03;5.15;;;2.00;;
71106;SDS011;58763;47.982;11.516;2023-09-18T04:21:29;7.53;;;2.42;;
71106;SDS011;58763;47.982;11.516;2023-09-18T04:23:55;6.30;;;2.28;;
71106;SDS011;58763;47.982;11.516;2023-09-18T04:26:26;6.80;;;2.25;;
71106;SDS011;58763;47.982;11.516;2023-09-18T04:28:56;6.45;;;2.63;;
71106;SDS011;58763;47.982;11.516;2023-09-18T04:31:22;6.80;;;2.17;;
71106;SDS011;58763;47.982;11.516;2023-09-18T04:33:47;6.72;;;2.30;;
71106;SDS011;58763;47.982;11.516;2023-09-18T04:36:13;6.55;;;2.28;;
71106;SDS011;58763;47.982;11.516;2023-09-18T04:38:39;5.45;;;2.38;;
71106;SDS011;58763;47.982;11.516;2023-09-18T04:41:04;9.13;;;2.65;;
71106;SDS011;58763;47.982;11.516;2023-09-18T04:43:33;5.97;;;2.63;;
71106;SDS011;58763;47.982;11.516;2023-09-18T04:46:00;5.10;;;2.10;;
71106;SDS011;58763;47.982;11.516;2023-09-18T04:48:29;13.32;;;2.70;;
71106;SDS011;58763;47.982;11.516;2023-09-18T04:50:55;7.40;;;2.35;;
71106;SDS011;58763;47.982;11.516;2023-09-18T04:53:21;6.75;;;2.28;;
71106;SDS011;58763;47.982;11.516;2023-09-18T04:55:46;6.13;;;2.17;;
71106;SDS011;58763;47.982;11.516;2023-09-18T04:58:14;7.20;;;2.13;;
71106;SDS011;58763;47.982;11.516;2023-09-18T05:00:40;9.55;;;2.35;;
71106;SDS011;58763;47.982;11.516;2023-09-18T05:03:06;8.98;;;2.45;;
71106;SDS011;58763;47.982;11.516;2023-09-18T05:05:36;4.80;;;2.45;;
71106;SDS011;58763;47.982;11.516;2023-09-18T05:08:02;5.65;;;2.15;;
71106;SDS011;58763;47.982;11.516;2023-09-18T05:13:01;8.63;;;2.25;;
71106;SDS011;58763;47.982;11.516;2023-09-18T05:15:28;8.27;;;2.33;;
71106;SDS011;58763;47.982;11.516;2023-09-18T05:17:54;6.20;;;2.55;;
71106;SDS011;58763;47.982;11.516;2023-09-18T05:20:22;9.85;;;2.60;;
71106;SDS011;58763;47.982;11.516;2023-09-18T05:22:50;5.57;;;2.45;;
71106;SDS011;58763;47.982;11.516;2023-09-18T05:25:20;6.05;;;2.40;;
71106;SDS011;58763;47.982;11.516;2023-09-18T05:27:50;8.07;;;2.55;;
71106;SDS011;58763;47.982;11.516;2023-09-18T05:30:21;5.60;;;2.20;;
71106;SDS011;58763;47.982;11.516;2023-09-18T05:32:56;9.70;;;2.65;;
71106;SDS011;58763;47.982;11.516;2023-09-18T05:35:22;7.28;;;2.55;;
71106;SDS011;58763;47.982;11.516;2023-09-18T05:37:49;9.05;;;2.78;;
71106;SDS011;58763;47.982;11.516;2023-09-18T05:40:16;10.57;;;2.55;;
71106;SDS011;58763;47.982;11.516;2023-09-18T05:42:42;8.15;;;3.05;;
71106;SDS011;58763;47.982;11.516;2023-09-18T05:45:09;7.63;;;2.30;;
71106;SDS011;58763;47.982;11.516;2023-09-18T05:47:36;6.47;;;2.70;;
71106;SDS011;58763;47.982;11.516;2023-09-18T05:50:03;7.07;;;2.22;;
71106;SDS011;58763;47.982;11.516;2023-09-18T05:55:00;11.27;;;2.53;;
71106;SDS011;58763;47.982;11.516;2023-09-18T05:57:26;9.55;;;2.85;;
71106;SDS011;58763;47.982;11.516;2023-09-18T05:59:54;9.30;;;2.70;;
71106;SDS011;58763;47.982;11.516;2023-09-18T06:02:23;8.18;;;2.72;;
71106;SDS011;58763;47.982;11.516;2023-09-18T06:04:54;7.47;;;2.55;;
71106;SDS011;58763;47.982;11.516;2023-09-18T06:07:21;7.10;;;2.47;;
71106;SDS011;58763;47.982;11.516;2023-09-18T06:09:48;10.10;;;2.50;;
71106;SDS011;58763;47.982;11.516;2023-09-18T06:12:13;10.00;;;2.40;;
71106;SDS011;58763;47.982;11.516;2023-09-18T06:14:39;5.80;;;2.75;;
71106;SDS011;58763;47.982;11.516;2023-09-18T06:17:04;8.18;;;2.85;;
71106;SDS011;58763;47.982;11.516;2023-09-18T06:19:31;6.05;;;2.10;;
71106;SDS011;58763;47.982;11.516;2023-09-18T06:21:58;6.07;;;2.30;;
71106;SDS011;58763;47.982;11.516;2023-09-18T06:24:23;8.00;;;2.40;;
71106;SDS011;58763;47.982;11.516;2023-09-18T06:26:49;8.52;;;2.58;;
71106;SDS011;58763;47.982;11.516;2023-09-18T06:29:16;8.10;;;2.25;;
71106;SDS011;58763;47.982;11.516;2023-09-18T06:31:43;11.48;;;3.03;;
71106;SDS011;58763;47.982;11.516;2023-09-18T06:34:08;9.63;;;2.50;;
71106;SDS011;58763;47.982;11.516;2023-09-18T06:36:34;8.63;;;2.67;;
71106;SDS011;58763;47.982;11.516;2023-09-18T06:38:59;8.15;;;2.50;;
71106;SDS011;58763;47.982;11.516;2023-09-18T06:41:25;8.43;;;2.83;;
71106;SDS011;58763;47.982;11.516;2023-09-18T06:43:50;13.48;;;2.72;;
71106;SDS011;58763;47.982;11.516;2023-09-18T06:46:16;7.25;;;2.55;;
71106;SDS011;58763;47.982;11.516;2023-09-18T06:48:41;7.53;;;2.70;;
71106;SDS011;58763;47.982;11.516;2023-09-18T06:51:14;8.90;;;2.67;;
71106;SDS011;58763;47.982;11.516;2023-09-18T06:53:40;11.80;;;2.60;;
71106;SDS011;58763;47.982;11.516;2023-09-18T06:56:05;10.35;;;2.67;;
71106;SDS011;58763;47.982;11.516;2023-09-18T06:58:31;7.78;;;2.38;;
71106;SDS011;58763;47.982;11.516;2023-09-18T07:00:56;7.97;;;2.50;;
71106;SDS011;58763;47.982;11.516;2023-09-18T07:03:23;11.18;;;2.75;;
71106;SDS011;58763;47.982;11.516;2023-09-18T07:05:49;6.75;;;2.63;;
71106;SDS011;58763;47.982;11.516;2023-09-18T07:08:14;9.63;;;2.50;;
71106;SDS011;58763;47.982;11.516;2023-09-18T07:10:44;7.32;;;2.45;;
71106;SDS011;58763;47.982;11.516;2023-09-18T07:13:10;7.90;;;2.63;;
71106;SDS011;58763;47.982;11.516;2023-09-18T07:15:37;8.00;;;2.67;;
71106;SDS011;58763;47.982;11.516;2023-09-18T07:18:03;7.95;;;2.53;;
71106;SDS011;58763;47.982;11.516;2023-09-18T07:20:29;9.25;;;2.63;;
71106;SDS011;58763;47.982;11.516;2023-09-18T07:22:56;8.55;;;2.70;;
71106;SDS011;58763;47.982;11.516;2023-09-18T07:25:22;11.93;;;2.50;;
71106;SDS011;58763;47.982;11.516;2023-09-18T07:27:47;8.32;;;3.33;;
71106;SDS011;58763;47.982;11.516;2023-09-18T07:30:13;11.30;;;2.75;;
71106;SDS011;58763;47.982;11.516;2023-09-18T07:32:45;12.80;;;2.83;;
71106;SDS011;58763;47.982;11.516;2023-09-18T07:35:11;14.43;;;2.97;;
71106;SDS011;58763;47.982;11.516;2023-09-18T07:37:38;13.75;;;3.10;;
71106;SDS011;58763;47.982;11.516;2023-09-18T07:40:06;12.27;;;2.80;;
71106;SDS011;58763;47.982;11.516;2023-09-18T07:42:32;14.55;;;2.80;;
71106;SDS011;58763;47.982;11.516;2023-09-18T07:44:59;13.55;;;2.33;;
71106;SDS011;58763;47.982;11.516;2023-09-18T07:47:25;10.60;;;2.78;;
71106;SDS011;58763;47.982;11.516;2023-09-18T07:49:51;12.70;;;2.60;;
71106;SDS011;58763;47.982;11.516;2023-09-18T07:52:17;12.85;;;2.35;;
71106;SDS011;58763;47.982;11.516;2023-09-18T07:54:43;12.73;;;2.83;;
71106;SDS011;58763;47.982;11.516;2023-09-18T07:57:09;13.02;;;2.10;;
71106;SDS011;58763;47.982;11.516;2023-09-18T07:59:35;9.35;;;2.67;;
71106;SDS011;58763;47.982;11.516;2023-09-18T08:04:31;8.55;;;1.98;;
71106;SDS011;58763;47.982;11.516;2023-09-18T08:06:57;13.93;;;2.53;;
71106;SDS011;58763;47.982;11.516;2023-09-18T08:09:23;11.48;;;2.85;;
71106;SDS011;58763;47.982;11.516;2023-09-18T08:11:49;11.57;;;2.22;;
71106;SDS011;58763;47.982;11.516;2023-09-18T08:14:15;8.77;;;2.22;;
71106;SDS011;58763;47.982;11.516;2023-09-18T08:16:42;9.82;;;2.28;;
71106;SDS011;58763;47.982;11.516;2023-09-18T08:19:08;8.60;;;2.70;;
71106;SDS011;58763;47.982;11.516;2023-09-18T08:21:34;12.15;;;2.90;;
71106;SDS011;58763;47.982;11.516;2023-09-18T08:24:00;9.25;;;2.42;;
71106;SDS011;58763;47.982;11.516;2023-09-18T08:26:25;11.25;;;2.20;;
71106;SDS011;58763;47.982;11.516;2023-09-18T08:28:52;10.02;;;2.22;;
71106;SDS011;58763;47.982;11.516;2023-09-18T08:31:18;9.60;;;2.88;;
71106;SDS011;58763;47.982;11.516;2023-09-18T08:33:44;6.57;;;2.22;;
71106;SDS011;58763;47.982;11.516;2023-09-18T08:36:09;8.50;;;2.25;;
71106;SDS011;58763;47.982;11.516;2023-09-18T08:38:34;8.18;;;2.30;;
71106;SDS011;58763;47.982;11.516;2023-09-18T08:41:00;8.52;;;2.38;;
71106;SDS011;58763;47.982;11.516;2023-09-18T08:43:26;7.22;;;2.38;;
71106;SDS011;58763;47.982;11.516;2023-09-18T08:45:55;10.18;;;2.13;;
71106;SDS011;58763;47.982;11.516;2023-09-18T08:48:26;7.07;;;2.08;;
71106;SDS011;58763;47.982;11.516;2023-09-18T08:51:03;9.07;;;2.20;;
71106;SDS011;58763;47.982;11.516;2023-09-18T08:53:30;9.45;;;2.30;;
71106;SDS011;58763;47.982;11.516;2023-09-18T08:55:58;6.88;;;2.33;;
71106;SDS011;58763;47.982;11.516;2023-09-18T08:58:31;9.10;;;2.40;;
71106;SDS011;58763;47.982;11.516;2023-09-18T09:01:03;12.80;;;2.38;;
71106;SDS011;58763;47.982;11.516;2023-09-18T09:03:29;11.20;;;2.60;;
71106;SDS011;58763;47.982;11.516;2023-09-18T09:05:56;7.97;;;2.60;;
71106;SDS011;58763;47.982;11.516;2023-09-18T09:08:22;12.18;;;2.30;;
71106;SDS011;58763;47.982;11.516;2023-09-18T09:10:48;6.80;;;2.22;;
71106;SDS011;58763;47.982;11.516;2023-09-18T09:13:15;9.43;;;2.72;;
71106;SDS011;58763;47.982;11.516;2023-09-18T09:15:44;8.38;;;2.65;;
71106;SDS011;58763;47.982;11.516;2023-09-18T09:18:11;12.05;;;2.50;;
71106;SDS011;58763;47.982;11.516;2023-09-18T09:20:38;8.45;;;2.47;;
71106;SDS011;58763;47.982;11.516;2023-09-18T09:23:05;6.65;;;2.40;;
71106;SDS011;58763;47.982;11.516;2023-09-18T09:25:32;8.38;;;2.70;;
71106;SDS011;58763;47.982;11.516;2023-09-18T09:27:59;10.57;;;3.05;;
71106;SDS011;58763;47.982;11.516;2023-09-18T09:30:26;6.13;;;1.90;;
71106;SDS011;58763;47.982;11.516;2023-09-18T09:32:54;8.55;;;2.40;;
71106;SDS011;58763;47.982;11.516;2023-09-18T09:37:58;9.15;;;2.70;;
71106;SDS011;58763;47.982;11.516;2023-09-18T09:40:46;8.32;;;2.30;;
71106;SDS011;58763;47.982;11.516;2023-09-18T09:43:12;8.73;;;2.22;;
71106;SDS011;58763;47.982;11.516;2023-09-18T09:45:40;11.38;;;2.50;;
71106;SDS011;58763;47.982;11.516;2023-09-18T09:48:07;10.15;;;2.22;;
71106;SDS011;58763;47.982;11.516;2023-09-18T09:50:34;8.77;;;2.25;;
71106;SDS011;58763;47.982;11.516;2023-09-18T09:53:13;13.40;;;2.40;;
71106;SDS011;58763;47.982;11.516;2023-09-18T09:55:39;9.65;;;2.40;;
71106;SDS011;58763;47.982;11.516;2023-09-18T09:58:07;10.30;;;2.00;;
71106;SDS011;58763;47.982;11.516;2023-09-18T10:00:39;9.32;;;2.25;;
71106;SDS011;58763;47.982;11.516;2023-09-18T10:03:09;7.85;;;2.20;;
71106;SDS011;58763;47.982;11.516;2023-09-18T10:05:36;9.15;;;2.85;;
71106;SDS011;58763;47.982;11.516;2023-09-18T10:08:07;6.25;;;2.22;;
71106;SDS011;58763;47.982;11.516;2023-09-18T10:10:35;9.40;;;2.45;;
71106;SDS011;58763;47.982;11.516;2023-09-18T10:13:08;11.98;;;2.53;;
71106;SDS011;58763;47.982;11.516;2023-09-18T10:15:37;11.75;;;2.70;;
71106;SDS011;58763;47.982;11.516;2023-09-18T10:18:05;9.27;;;2.53;;
71106;SDS011;58763;47.982;11.516;2023-09-18T10:20:39;8.38;;;2.05;;
71106;SDS011;58763;47.982;11.516;2023-09-18T10:23:11;10.43;;;2.38;;
71106;SDS011;58763;47.982;11.516;2023-09-18T10:25:55;6.78;;;2.13;;
71106;SDS011;58763;47.982;11.516;2023-09-18T10:28:25;9.80;;;2.45;;
71106;SDS011;58763;47.982;11.516;2023-09-18T10:30:54;10.25;;;2.72;;
71106;SDS011;58763;47.982;11.516;2023-09-18T10:33:22;10.50;;;2.35;;
71106;SDS011;58763;47.982;11.516;2023-09-18T10:35:48;8.02;;;2.33;;
71106;SDS011;58763;47.982;11.516;2023-09-18T10:38:15;11.13;;;2.33;;
71106;SDS011;58763;47.982;11.516;2023-09-18T10:40:42;11.95;;;2.70;;
71106;SDS011;58763;47.982;11.516;2023-09-18T10:43:08;11.90;;;2.50;;
71106;SDS011;58763;47.982;11.516;2023-09-18T10:45:36;10.70;;;2.58;;
71106;SDS011;58763;47.982;11.516;2023-09-18T10:48:03;13.43;;;2.13;;
71106;SDS011;58763;47.982;11.516;2023-09-18T10:50:29;11.27;;;2.35;;
71106;SDS011;58763;47.982;11.516;2023-09-18T10:52:58;16.23;;;2.50;;
71106;SDS011;58763;47.982;11.516;2023-09-18T10:55:24;10.18;;;2.65;;
71106;SDS011;58763;47.982;11.516;2023-09-18T10:58:00;13.13;;;2.65;;
71106;SDS011;58763;47.982;11.516;2023-09-18T11:00:26;9.80;;;2.65;;
71106;SDS011;58763;47.982;11.516;2023-09-18T11:02:56;9.13;;;2.25;;
71106;SDS011;58763;47.982;11.516;2023-09-18T11:05:35;7.80;;;2.20;;
71106;SDS011;58763;47.982;11.516;2023-09-18T11:08:23;9.35;;;2.30;;
71106;SDS011;58763;47.982;11.516;2023-09-18T11:11:09;11.00;;;2.08;;
71106;SDS011;58763;47.982;11.516;2023-09-18T11:13:38;8.05;;;2.30;;
71106;SDS011;58763;47.982;11.516;2023-09-18T11:18:53;10.35;;;2.33;;
71106;SDS011;58763;47.982;11.516;2023-09-18T11:21:29;10.50;;;2.40;;
71106;SDS011;58763;47.982;11.516;2023-09-18T11:23:59;10.75;;;2.45;;
71106;SDS011;58763;47.982;11.516;2023-09-18T11:26:40;9.60;;;2.40;;
71106;SDS011;58763;47.982;11.516;2023-09-18T11:29:08;7.28;;;2.35;;
71106;SDS011;58763;47.982;11.516;2023-09-18T11:31:45;8.82;;;2.35;;
71106;SDS011;58763;47.982;11.516;2023-09-18T11:37:20;8.98;;;2.65;;
71106;SDS011;58763;47.982;11.516;2023-09-18T11:39:46;7.40;;;2.33;;
71106;SDS011;58763;47.982;11.516;2023-09-18T11:42:13;7.78;;;2.03;;
71106;SDS011;58763;47.982;11.516;2023-09-18T11:44:47;8.27;;;1.80;;
71106;SDS011;58763;47.982;11.516;2023-09-18T11:47:18;4.13;;;1.58;;
71106;SDS011;58763;47.982;11.516;2023-09-18T11:49:52;6.32;;;1.10;;
71106;SDS011;58763;47.982;11.516;2023-09-18T11:52:23;8.77;;;1.40;;
71106;SDS011;58763;47.982;11.516;2023-09-18T11:54:53;6.65;;;1.10;;
71106;SDS011;58763;47.982;11.516;2023-09-18T11:57:20;4.70;;;1.10;;
71106;SDS011;58763;47.982;11.516;2023-09-18T11:59:46;4.07;;;0.80;;
71106;SDS011;58763;47.982;11.516;2023-09-18T12:02:13;5.70;;;1.30;;
71106;SDS011;58763;47.982;11.516;2023-09-18T12:04:46;3.67;;;1.13;;
71106;SDS011;58763;47.982;11.516;2023-09-18T12:07:13;4.10;;;0.80;;
71106;SDS011;58763;47.982;11.516;2023-09-18T12:09:39;3.90;;;0.93;;
71106;SDS011;58763;47.982;11.516;2023-09-18T12:12:05;4.32;;;0.90;;
71106;SDS011;58763;47.982;11.516;2023-09-18T12:14:32;4.32;;;1.30;;
71106;SDS011;58763;47.982;11.516;2023-09-18T12:17:01;3.60;;;0.95;;
71106;SDS011;58763;47.982;11.516;2023-09-18T12:19:29;3.60;;;0.85;;
71106;SDS011;58763;47.982;11.516;2023-09-18T12:21:56;6.13;;;1.13;;
71106;SDS011;58763;47.982;11.516;2023-09-18T12:24:23;3.45;;;0.73;;
71106;SDS011;58763;47.982;11.516;2023-09-18T12:26:53;3.22;;;0.88;;
71106;SDS011;58763;47.982;11.516;2023-09-18T12:29:20;1.83;;;0.63;;
71106;SDS011;58763;47.982;11.516;2023-09-18T12:31:46;3.00;;;0.70;;
71106;SDS011;58763;47.982;11.516;2023-09-18T12:34:16;3.25;;;0.60;;
71106;SDS011;58763;47.982;11.516;2023-09-18T12:36:43;3.60;;;0.68;;
71106;SDS011;58763;47.982;11.516;2023-09-18T12:39:12;3.92;;;0.73;;
71106;SDS011;58763;47.982;11.516;2023-09-18T12:41:41;2.30;;;0.60;;
71106;SDS011;58763;47.982;11.516;2023-09-18T12:44:09;4.25;;;0.70;;
71106;SDS011;58763;47.982;11.516;2023-09-18T12:46:35;3.63;;;0.70;;
71106;SDS011;58763;47.982;11.516;2023-09-18T12:49:15;2.45;;;0.80;;
71106;SDS011;58763;47.982;11.516;2023-09-18T12:51:53;3.58;;;0.60;;
71106;SDS011;58763;47.982;11.516;2023-09-18T12:54:36;2.65;;;0.65;;
71106;SDS011;58763;47.982;11.516;2023-09-18T12:57:05;5.93;;;0.90;;
71106;SDS011;58763;47.982;11.516;2023-09-18T12:59:31;3.03;;;0.60;;
71106;SDS011;58763;47.982;11.516;2023-09-18T13:01:58;5.60;;;1.00;;
71106;SDS011;58763;47.982;11.516;2023-09-18T13:04:24;2.75;;;0.70;;
71106;SDS011;58763;47.982;11.516;2023-09-18T13:07:06;3.53;;;0.80;;
71106;SDS011;58763;47.982;11.516;2023-09-18T13:09:34;7.13;;;0.82;;
71106;SDS011;58763;47.982;11.516;2023-09-18T13:12:02;3.53;;;0.80;;
71106;SDS011;58763;47.982;11.516;2023-09-18T13:14:29;3.90;;;0.77;;
71106;SDS011;58763;47.982;11.516;2023-09-18T13:17:01;6.28;;;1.15;;
71106;SDS011;58763;47.982;11.516;2023-09-18T13:19:29;5.05;;;0.70;;
71106;SDS011;58763;47.982;11.516;2023-09-18T13:21:55;3.13;;;0.63;;
71106;SDS011;58763;47.982;11.516;2023-09-18T13:24:27;2.92;;;0.90;;
71106;SDS011;58763;47.982;11.516;2023-09-18T13:26:54;3.25;;;0.85;;
71106;SDS011;58763;47.982;11.516;2023-09-18T13:29:20;3.63;;;0.85;;
71106;SDS011;58763;47.982;11.516;2023-09-18T13:31:46;2.63;;;0.80;;
71106;SDS011;58763;47.982;11.516;2023-09-18T13:34:12;3.40;;;0.88;;
71106;SDS011;58763;47.982;11.516;2023-09-18T13:36:38;3.15;;;0.88;;
71106;SDS011;58763;47.982;11.516;2023-09-18T13:39:03;2.75;;;0.80;;
71106;SDS011;58763;47.982;11.516;2023-09-18T13:41:29;3.10;;;0.60;;
71106;SDS011;58763;47.982;11.516;2023-09-18T13:43:56;3.03;;;0.80;;
71106;SDS011;58763;47.982;11.516;2023-09-18T13:46:22;3.90;;;0.85;;
71106;SDS011;58763;47.982;11.516;2023-09-18T13:48:48;3.88;;;1.25;;
71106;SDS011;58763;47.982;11.516;2023-09-18T13:51:14;3.33;;;0.90;;
71106;SDS011;58763;47.982;11.516;2023-09-18T13:53:39;2.97;;;0.80;;
71106;SDS011;58763;47.982;11.516;2023-09-18T13:56:06;3.38;;;0.70;;
71106;SDS011;58763;47.982;11.516;2023-09-18T13:58:32;1.45;;;0.50;;
71106;SDS011;58763;47.982;11.516;2023-09-18T14:00:57;3.22;;;0.90;;
71106;SDS011;58763;47.982;11.516;2023-09-18T14:03:23;4.97;;;1.00;;
71106;SDS011;58763;47.982;11.516;2023-09-18T14:05:49;3.60;;;0.82;;
71106;SDS011;58763;47.982;11.516;2023-09-18T14:08:15;2.53;;;0.70;;
71106;SDS011;58763;47.982;11.516;2023-09-18T14:10:43;3.35;;;0.70;;
71106;SDS011;58763;47.982;11.516;2023-09-18T14:13:08;2.70;;;0.70;;
71106;SDS011;58763;47.982;11.516;2023-09-18T14:15:34;3.10;;;0.60;;
71106;SDS011;58763;47.982;11.516;2023-09-18T14:18:00;3.53;;;0.70;;
71106;SDS011;58763;47.982;11.516;2023-09-18T14:20:25;3.60;;;0.82;;
71106;SDS011;58763;47.982;11.516;2023-09-18T14:22:51;2.47;;;0.70;;
71106;SDS011;58763;47.982;11.516;2023-09-18T14:25:16;2.60;;;0.70;;
71106;SDS011;58763;47.982;11.516;2023-09-18T14:27:45;1.95;;;0.40;;
71106;SDS011;58763;47.982;11.516;2023-09-18T14:30:10;2.08;;;0.50;;
71106;SDS011;58763;47.982;11.516;2023-09-18T14:32:38;5.65;;;0.80;;
71106;SDS011;58763;47.982;11.516;2023-09-18T14:35:05;5.45;;;0.60;;
71106;SDS011;58763;47.982;11.516;2023-09-18T14:37:33;1.35;;;0.55;;
71106;SDS011;58763;47.982;11.516;2023-09-18T14:39:59;3.40;;;0.60;;
71106;SDS011;58763;47.982;11.516;2023-09-18T14:42:25;2.28;;;0.60;;
71106;SDS011;58763;47.982;11.516;2023-09-18T14:44:50;2.60;;;0.47;;
71106;SDS011;58763;47.982;11.516;2023-09-18T14:47:16;3.00;;;0.57;;
71106;SDS011;58763;47.982;11.516;2023-09-18T14:49:41;2.50;;;0.60;;
71106;SDS011;58763;47.982;11.516;2023-09-18T14:52:11;2.80;;;0.50;;
71106;SDS011;58763;47.982;11.516;2023-09-18T14:54:37;2.67;;;0.47;;